sensor_id;sensor_type;location;lat;lon;timestamp;temperature;humidity
13808;DHT22;40769;51.512;5.494;2023-03-01T00:01:13;2.90;99.90
13808;DHT22;40769;51.512;5.494;2023-03-01T00:03:39;2.90;99.90
13808;DHT22;40769;51.512;5.494;2023-03-01T00:06:06;2.90;99.90
13808;DHT22;40769;51.512;5.494;2023-03-01T00:08:32;2.90;99.90
13808;DHT22;40769;51.512;5.494;2023-03-01T00:13:30;2.70;99.90
13808;DHT22;40769;51.512;5.494;2023-03-01T00:15:56;2.80;99.90
13808;DHT22;40769;51.512;5.494;2023-03-01T00:18:22;2.80;99.90
13808;DHT22;40769;51.512;5.494;2023-03-01T00:20:52;2.90;99.90
13808;DHT22;40769;51.512;5.494;2023-03-01T00:23:18;3.10;99.90
13808;DHT22;40769;51.512;5.494;2023-03-01T00:25:44;3.30;99.90
13808;DHT22;40769;51.512;5.494;2023-03-01T00:28:10;3.40;99.90
13808;DHT22;40769;51.512;5.494;2023-03-01T00:30:35;3.50;99.90
13808;DHT22;40769;51.512;5.494;2023-03-01T00:33:01;3.40;99.90
13808;DHT22;40769;51.512;5.494;2023-03-01T00:35:26;3.50;99.90
13808;DHT22;40769;51.512;5.494;2023-03-01T00:37:52;3.40;99.90
13808;DHT22;40769;51.512;5.494;2023-03-01T00:40:23;3.30;99.90
13808;DHT22;40769;51.512;5.494;2023-03-01T00:42:49;3.20;99.90
13808;DHT22;40769;51.512;5.494;2023-03-01T00:45:15;3.20;99.90
13808;DHT22;40769;51.512;5.494;2023-03-01T00:47:41;3.30;99.90
13808;DHT22;40769;51.512;5.494;2023-03-01T00:50:07;3.50;99.90
13808;DHT22;40769;51.512;5.494;2023-03-01T00:52:33;3.70;99.90
13808;DHT22;40769;51.512;5.494;2023-03-01T00:54:59;4.00;99.90
13808;DHT22;40769;51.512;5.494;2023-03-01T00:57:24;4.20;99.90
13808;DHT22;40769;51.512;5.494;2023-03-01T00:59:50;4.50;99.90
13808;DHT22;40769;51.512;5.494;2023-03-01T01:02:18;4.60;99.90
13808;DHT22;40769;51.512;5.494;2023-03-01T01:04:43;4.80;99.90
13808;DHT22;40769;51.512;5.494;2023-03-01T01:07:09;5.00;99.90
13808;DHT22;40769;51.512;5.494;2023-03-01T01:09:35;5.20;99.90
13808;DHT22;40769;51.512;5.494;2023-03-01T01:12:01;5.20;99.90
13808;DHT22;40769;51.512;5.494;2023-03-01T01:14:26;5.30;99.90
13808;DHT22;40769;51.512;5.494;2023-03-01T01:16:52;5.30;99.90
13808;DHT22;40769;51.512;5.494;2023-03-01T01:19:17;5.20;99.90
13808;DHT22;40769;51.512;5.494;2023-03-01T01:21:43;5.10;99.90
13808;DHT22;40769;51.512;5.494;2023-03-01T01:24:10;5.10;99.90
13808;DHT22;40769;51.512;5.494;2023-03-01T01:26:36;5.00;99.90
13808;DHT22;40769;51.512;5.494;2023-03-01T01:29:04;5.10;99.90
13808;DHT22;40769;51.512;5.494;2023-03-01T01:31:30;5.00;99.90
13808;DHT22;40769;51.512;5.494;2023-03-01T01:33:59;4.90;99.90
13808;DHT22;40769;51.512;5.494;2023-03-01T01:36:25;4.80;99.90
13808;DHT22;40769;51.512;5.494;2023-03-01T01:38:51;4.60;99.90
13808;DHT22;40769;51.512;5.494;2023-03-01T01:41:17;4.50;99.90
13808;DHT22;40769;51.512;5.494;2023-03-01T01:43:48;4.30;99.90
13808;DHT22;40769;51.512;5.494;2023-03-01T01:46:30;4.30;99.90
13808;DHT22;40769;51.512;5.494;2023-03-01T01:49:03;4.30;99.90
13808;DHT22;40769;51.512;5.494;2023-03-01T01:51:35;4.30;99.90
13808;DHT22;40769;51.512;5.494;2023-03-01T01:54:08;4.20;99.90
13808;DHT22;40769;51.512;5.494;2023-03-01T01:56:37;4.20;99.90
13808;DHT22;40769;51.512;5.494;2023-03-01T01:59:04;4.10;99.90
13808;DHT22;40769;51.512;5.494;2023-03-01T02:01:30;4.10;99.90
13808;DHT22;40769;51.512;5.494;2023-03-01T02:03:56;4.10;99.90
13808;DHT22;40769;51.512;5.494;2023-03-01T02:06:34;4.10;99.90
13808;DHT22;40769;51.512;5.494;2023-03-01T02:09:06;4.20;99.90
13808;DHT22;40769;51.512;5.494;2023-03-01T02:11:33;4.20;99.90
13808;DHT22;40769;51.512;5.494;2023-03-01T02:14:00;4.20;99.90
13808;DHT22;40769;51.512;5.494;2023-03-01T02:16:26;4.10;99.90
13808;DHT22;40769;51.512;5.494;2023-03-01T02:18:52;4.10;99.90
13808;DHT22;40769;51.512;5.494;2023-03-01T02:23:59;3.90;99.90
13808;DHT22;40769;51.512;5.494;2023-03-01T02:26:40;3.80;99.90
13808;DHT22;40769;51.512;5.494;2023-03-01T02:29:06;3.60;99.90
13808;DHT22;40769;51.512;5.494;2023-03-01T02:31:32;3.40;99.90
13808;DHT22;40769;51.512;5.494;2023-03-01T02:34:10;3.30;99.90
13808;DHT22;40769;51.512;5.494;2023-03-01T02:36:40;3.10;99.90
13808;DHT22;40769;51.512;5.494;2023-03-01T02:39:07;3.00;99.90
13808;DHT22;40769;51.512;5.494;2023-03-01T02:41:41;2.90;99.90
13808;DHT22;40769;51.512;5.494;2023-03-01T02:44:08;2.70;99.90
13808;DHT22;40769;51.512;5.494;2023-03-01T02:46:42;2.70;99.90
13808;DHT22;40769;51.512;5.494;2023-03-01T02:49:29;2.60;99.90
13808;DHT22;40769;51.512;5.494;2023-03-01T02:54:50;2.30;99.90
13808;DHT22;40769;51.512;5.494;2023-03-01T02:57:16;2.20;99.90
13808;DHT22;40769;51.512;5.494;2023-03-01T02:59:42;2.20;99.90
13808;DHT22;40769;51.512;5.494;2023-03-01T03:02:19;2.10;99.90
13808;DHT22;40769;51.512;5.494;2023-03-01T03:04:46;2.10;99.90
13808;DHT22;40769;51.512;5.494;2023-03-01T03:07:12;2.00;99.90
13808;DHT22;40769;51.512;5.494;2023-03-01T03:09:38;2.00;99.90
13808;DHT22;40769;51.512;5.494;2023-03-01T03:12:03;1.90;99.90
13808;DHT22;40769;51.512;5.494;2023-03-01T03:14:29;1.90;99.90
13808;DHT22;40769;51.512;5.494;2023-03-01T03:16:55;1.90;99.90
13808;DHT22;40769;51.512;5.494;2023-03-01T03:19:20;1.90;99.90
13808;DHT22;40769;51.512;5.494;2023-03-01T03:21:46;1.90;99.90
13808;DHT22;40769;51.512;5.494;2023-03-01T03:24:12;1.80;99.90
13808;DHT22;40769;51.512;5.494;2023-03-01T03:26:37;1.80;99.90
13808;DHT22;40769;51.512;5.494;2023-03-01T03:29:03;1.70;99.90
13808;DHT22;40769;51.512;5.494;2023-03-01T03:31:29;1.80;99.90
13808;DHT22;40769;51.512;5.494;2023-03-01T03:33:54;1.80;99.90
13808;DHT22;40769;51.512;5.494;2023-03-01T03:36:22;1.70;99.90
13808;DHT22;40769;51.512;5.494;2023-03-01T03:38:48;1.70;99.90
13808;DHT22;40769;51.512;5.494;2023-03-01T03:41:15;1.70;99.90
13808;DHT22;40769;51.512;5.494;2023-03-01T03:43:41;1.70;99.90
13808;DHT22;40769;51.512;5.494;2023-03-01T03:46:09;1.70;99.90
13808;DHT22;40769;51.512;5.494;2023-03-01T03:48:38;1.70;99.90
13808;DHT22;40769;51.512;5.494;2023-03-01T03:51:03;1.70;99.90
13808;DHT22;40769;51.512;5.494;2023-03-01T03:53:31;1.70;99.90
13808;DHT22;40769;51.512;5.494;2023-03-01T03:55:58;1.60;99.90
13808;DHT22;40769;51.512;5.494;2023-03-01T03:58:24;1.60;99.90
13808;DHT22;40769;51.512;5.494;2023-03-01T04:00:55;1.60;99.90
13808;DHT22;40769;51.512;5.494;2023-03-01T04:03:25;1.80;99.90
13808;DHT22;40769;51.512;5.494;2023-03-01T04:05:51;1.50;99.90
13808;DHT22;40769;51.512;5.494;2023-03-01T04:08:22;1.50;99.90
13808;DHT22;40769;51.512;5.494;2023-03-01T04:10:50;1.50;99.90
13808;DHT22;40769;51.512;5.494;2023-03-01T04:13:21;1.50;99.90
13808;DHT22;40769;51.512;5.494;2023-03-01T04:15:51;1.50;99.90
13808;DHT22;40769;51.512;5.494;2023-03-01T04:18:19;1.50;99.90
13808;DHT22;40769;51.512;5.494;2023-03-01T04:20:45;1.50;99.90
13808;DHT22;40769;51.512;5.494;2023-03-01T04:23:20;1.50;99.90
13808;DHT22;40769;51.512;5.494;2023-03-01T04:25:52;1.50;99.90
13808;DHT22;40769;51.512;5.494;2023-03-01T04:30:55;1.50;99.90
13808;DHT22;40769;51.512;5.494;2023-03-01T04:33:21;1.50;99.90
13808;DHT22;40769;51.512;5.494;2023-03-01T04:35:47;1.50;99.90
13808;DHT22;40769;51.512;5.494;2023-03-01T04:38:15;1.60;99.90
13808;DHT22;40769;51.512;5.494;2023-03-01T04:40:40;1.70;99.90
13808;DHT22;40769;51.512;5.494;2023-03-01T04:43:09;1.90;99.90
13808;DHT22;40769;51.512;5.494;2023-03-01T04:45:35;2.10;99.90
13808;DHT22;40769;51.512;5.494;2023-03-01T04:48:02;2.10;99.90
13808;DHT22;40769;51.512;5.494;2023-03-01T04:50:28;2.10;99.90
13808;DHT22;40769;51.512;5.494;2023-03-01T04:52:54;2.10;99.90
13808;DHT22;40769;51.512;5.494;2023-03-01T04:55:27;2.00;99.90
13808;DHT22;40769;51.512;5.494;2023-03-01T04:57:53;2.00;99.90
13808;DHT22;40769;51.512;5.494;2023-03-01T05:00:19;1.90;99.90
13808;DHT22;40769;51.512;5.494;2023-03-01T05:02:50;1.90;99.90
13808;DHT22;40769;51.512;5.494;2023-03-01T05:07:51;2.00;99.90
13808;DHT22;40769;51.512;5.494;2023-03-01T05:10:17;2.20;99.90
13808;DHT22;40769;51.512;5.494;2023-03-01T05:12:42;2.30;99.90
13808;DHT22;40769;51.512;5.494;2023-03-01T05:15:08;2.30;99.90
13808;DHT22;40769;51.512;5.494;2023-03-01T05:17:34;2.20;99.90
13808;DHT22;40769;51.512;5.494;2023-03-01T05:20:00;2.20;99.90
13808;DHT22;40769;51.512;5.494;2023-03-01T05:22:26;2.20;99.90
13808;DHT22;40769;51.512;5.494;2023-03-01T05:24:52;2.10;99.90
13808;DHT22;40769;51.512;5.494;2023-03-01T05:27:19;2.00;99.90
13808;DHT22;40769;51.512;5.494;2023-03-01T05:29:47;2.00;99.90
13808;DHT22;40769;51.512;5.494;2023-03-01T05:32:13;1.90;99.90
13808;DHT22;40769;51.512;5.494;2023-03-01T05:34:41;1.80;99.90
13808;DHT22;40769;51.512;5.494;2023-03-01T05:37:07;1.80;99.90
13808;DHT22;40769;51.512;5.494;2023-03-01T05:39:33;1.70;99.90
13808;DHT22;40769;51.512;5.494;2023-03-01T05:42:00;1.70;99.90
13808;DHT22;40769;51.512;5.494;2023-03-01T05:44:27;1.70;99.90
13808;DHT22;40769;51.512;5.494;2023-03-01T05:46:54;1.70;99.90
13808;DHT22;40769;51.512;5.494;2023-03-01T05:49:20;1.50;99.90
13808;DHT22;40769;51.512;5.494;2023-03-01T05:51:51;1.40;99.90
13808;DHT22;40769;51.512;5.494;2023-03-01T05:54:18;2.10;99.90
13808;DHT22;40769;51.512;5.494;2023-03-01T05:56:44;1.10;99.90
13808;DHT22;40769;51.512;5.494;2023-03-01T05:59:10;1.00;99.90
13808;DHT22;40769;51.512;5.494;2023-03-01T06:01:37;0.90;99.90
13808;DHT22;40769;51.512;5.494;2023-03-01T06:04:03;0.80;99.90
13808;DHT22;40769;51.512;5.494;2023-03-01T06:06:30;0.80;99.90
13808;DHT22;40769;51.512;5.494;2023-03-01T06:08:58;0.70;99.90
13808;DHT22;40769;51.512;5.494;2023-03-01T06:11:24;0.70;99.90
13808;DHT22;40769;51.512;5.494;2023-03-01T06:13:49;0.70;99.90
13808;DHT22;40769;51.512;5.494;2023-03-01T06:16:15;0.70;99.90
13808;DHT22;40769;51.512;5.494;2023-03-01T06:18:40;0.70;99.90
13808;DHT22;40769;51.512;5.494;2023-03-01T06:21:07;0.70;99.90
13808;DHT22;40769;51.512;5.494;2023-03-01T06:23:33;0.60;99.90
13808;DHT22;40769;51.512;5.494;2023-03-01T06:25:59;0.60;99.90
13808;DHT22;40769;51.512;5.494;2023-03-01T06:28:25;0.50;99.90
13808;DHT22;40769;51.512;5.494;2023-03-01T06:30:51;0.50;99.90
13808;DHT22;40769;51.512;5.494;2023-03-01T06:33:17;0.50;99.90
13808;DHT22;40769;51.512;5.494;2023-03-01T06:35:46;0.40;99.90
13808;DHT22;40769;51.512;5.494;2023-03-01T06:38:11;0.30;99.90
13808;DHT22;40769;51.512;5.494;2023-03-01T06:40:40;0.30;99.90
13808;DHT22;40769;51.512;5.494;2023-03-01T06:43:06;0.30;99.90
13808;DHT22;40769;51.512;5.494;2023-03-01T06:45:32;0.20;99.90
13808;DHT22;40769;51.512;5.494;2023-03-01T06:48:05;0.20;99.90
13808;DHT22;40769;51.512;5.494;2023-03-01T06:50:31;0.20;99.90
13808;DHT22;40769;51.512;5.494;2023-03-01T06:52:57;0.10;99.90
13808;DHT22;40769;51.512;5.494;2023-03-01T06:55:23;0.10;99.90
13808;DHT22;40769;51.512;5.494;2023-03-01T06:57:54;1.40;99.90
13808;DHT22;40769;51.512;5.494;2023-03-01T07:00:21;0.30;99.90
13808;DHT22;40769;51.512;5.494;2023-03-01T07:02:47;0.40;99.90
13808;DHT22;40769;51.512;5.494;2023-03-01T07:05:12;0.50;99.90
13808;DHT22;40769;51.512;5.494;2023-03-01T07:07:38;0.70;99.90
13808;DHT22;40769;51.512;5.494;2023-03-01T07:10:04;1.50;99.90
13808;DHT22;40769;51.512;5.494;2023-03-01T07:12:30;1.10;99.90
13808;DHT22;40769;51.512;5.494;2023-03-01T07:14:55;1.30;99.90
13808;DHT22;40769;51.512;5.494;2023-03-01T07:17:21;1.40;99.90
13808;DHT22;40769;51.512;5.494;2023-03-01T07:19:46;1.60;99.90
13808;DHT22;40769;51.512;5.494;2023-03-01T07:22:12;1.70;99.90
13808;DHT22;40769;51.512;5.494;2023-03-01T07:24:38;2.00;99.90
13808;DHT22;40769;51.512;5.494;2023-03-01T07:27:03;2.20;99.90
13808;DHT22;40769;51.512;5.494;2023-03-01T07:29:29;2.40;99.90
13808;DHT22;40769;51.512;5.494;2023-03-01T07:31:55;2.60;99.90
13808;DHT22;40769;51.512;5.494;2023-03-01T07:34:20;3.30;99.90
13808;DHT22;40769;51.512;5.494;2023-03-01T07:36:46;3.00;99.90
13808;DHT22;40769;51.512;5.494;2023-03-01T07:39:12;3.20;99.90
13808;DHT22;40769;51.512;5.494;2023-03-01T07:41:38;4.50;99.90
13808;DHT22;40769;51.512;5.494;2023-03-01T07:44:04;3.90;99.90
13808;DHT22;40769;51.512;5.494;2023-03-01T07:46:29;4.10;99.90
13808;DHT22;40769;51.512;5.494;2023-03-01T07:48:55;4.50;99.90
13808;DHT22;40769;51.512;5.494;2023-03-01T07:51:21;4.80;99.90
13808;DHT22;40769;51.512;5.494;2023-03-01T07:53:47;5.00;99.90
13808;DHT22;40769;51.512;5.494;2023-03-01T07:56:14;5.40;99.90
13808;DHT22;40769;51.512;5.494;2023-03-01T07:58:43;5.70;99.90
13808;DHT22;40769;51.512;5.494;2023-03-01T08:01:14;5.70;99.90
13808;DHT22;40769;51.512;5.494;2023-03-01T08:03:39;5.80;99.90
13808;DHT22;40769;51.512;5.494;2023-03-01T08:06:07;5.80;99.90
13808;DHT22;40769;51.512;5.494;2023-03-01T08:08:34;5.80;99.90
13808;DHT22;40769;51.512;5.494;2023-03-01T08:11:01;6.10;99.90
13808;DHT22;40769;51.512;5.494;2023-03-01T08:13:28;6.30;99.90
13808;DHT22;40769;51.512;5.494;2023-03-01T08:15:54;6.50;99.90
13808;DHT22;40769;51.512;5.494;2023-03-01T08:18:20;6.70;99.90
13808;DHT22;40769;51.512;5.494;2023-03-01T08:20:46;7.00;99.90
13808;DHT22;40769;51.512;5.494;2023-03-01T08:23:12;7.20;99.90
13808;DHT22;40769;51.512;5.494;2023-03-01T08:25:38;7.50;99.90
13808;DHT22;40769;51.512;5.494;2023-03-01T08:28:04;7.80;99.90
13808;DHT22;40769;51.512;5.494;2023-03-01T08:30:30;8.30;99.90
13808;DHT22;40769;51.512;5.494;2023-03-01T08:32:56;8.20;99.90
13808;DHT22;40769;51.512;5.494;2023-03-01T08:35:21;8.50;99.90
13808;DHT22;40769;51.512;5.494;2023-03-01T08:37:47;8.70;99.90
13808;DHT22;40769;51.512;5.494;2023-03-01T08:40:13;8.90;99.90
13808;DHT22;40769;51.512;5.494;2023-03-01T08:42:40;9.20;99.90
13808;DHT22;40769;51.512;5.494;2023-03-01T08:45:07;9.30;99.90
13808;DHT22;40769;51.512;5.494;2023-03-01T08:47:33;9.30;99.90
13808;DHT22;40769;51.512;5.494;2023-03-01T08:49:59;9.40;99.90
13808;DHT22;40769;51.512;5.494;2023-03-01T08:52:25;9.40;99.90
13808;DHT22;40769;51.512;5.494;2023-03-01T08:54:52;9.40;99.90
13808;DHT22;40769;51.512;5.494;2023-03-01T08:57:18;9.50;99.90
13808;DHT22;40769;51.512;5.494;2023-03-01T08:59:44;9.60;99.90
13808;DHT22;40769;51.512;5.494;2023-03-01T09:02:13;9.70;99.90
13808;DHT22;40769;51.512;5.494;2023-03-01T09:04:39;9.80;99.90
13808;DHT22;40769;51.512;5.494;2023-03-01T09:07:05;10.00;99.90
13808;DHT22;40769;51.512;5.494;2023-03-01T09:09:30;10.40;99.90
13808;DHT22;40769;51.512;5.494;2023-03-01T09:11:56;10.30;99.90
13808;DHT22;40769;51.512;5.494;2023-03-01T09:14:22;10.50;99.90
13808;DHT22;40769;51.512;5.494;2023-03-01T09:16:47;10.40;99.90
13808;DHT22;40769;51.512;5.494;2023-03-01T09:19:13;10.50;99.90
13808;DHT22;40769;51.512;5.494;2023-03-01T09:21:39;10.60;99.90
13808;DHT22;40769;51.512;5.494;2023-03-01T09:24:05;10.60;99.90
13808;DHT22;40769;51.512;5.494;2023-03-01T09:26:31;10.60;99.90
13808;DHT22;40769;51.512;5.494;2023-03-01T09:28:57;10.60;99.90
13808;DHT22;40769;51.512;5.494;2023-03-01T09:31:24;10.60;99.90
13808;DHT22;40769;51.512;5.494;2023-03-01T09:33:52;10.70;99.90
13808;DHT22;40769;51.512;5.494;2023-03-01T09:36:21;10.80;99.90
13808;DHT22;40769;51.512;5.494;2023-03-01T09:38:48;10.90;99.90
13808;DHT22;40769;51.512;5.494;2023-03-01T09:41:36;11.00;99.90
13808;DHT22;40769;51.512;5.494;2023-03-01T09:45:11;11.10;99.90
13808;DHT22;40769;51.512;5.494;2023-03-01T09:47:05;11.20;99.90
13808;DHT22;40769;51.512;5.494;2023-03-01T09:49:33;11.20;99.90
13808;DHT22;40769;51.512;5.494;2023-03-01T09:54:44;11.30;99.90
13808;DHT22;40769;51.512;5.494;2023-03-01T09:57:38;11.30;99.90
13808;DHT22;40769;51.512;5.494;2023-03-01T10:00:42;11.40;99.90
13808;DHT22;40769;51.512;5.494;2023-03-01T10:05:54;11.50;99.90
13808;DHT22;40769;51.512;5.494;2023-03-01T10:08:40;11.40;99.90
13808;DHT22;40769;51.512;5.494;2023-03-01T10:11:21;11.50;99.90
13808;DHT22;40769;51.512;5.494;2023-03-01T10:16:52;11.50;99.90
13808;DHT22;40769;51.512;5.494;2023-03-01T10:19:25;11.60;99.90
13808;DHT22;40769;51.512;5.494;2023-03-01T10:21:53;11.70;99.90
13808;DHT22;40769;51.512;5.494;2023-03-01T10:24:19;11.80;99.90
13808;DHT22;40769;51.512;5.494;2023-03-01T10:26:54;11.90;99.90
13808;DHT22;40769;51.512;5.494;2023-03-01T10:29:25;11.90;99.90
13808;DHT22;40769;51.512;5.494;2023-03-01T10:31:52;11.80;99.90
13808;DHT22;40769;51.512;5.494;2023-03-01T10:34:22;11.90;99.90
13808;DHT22;40769;51.512;5.494;2023-03-01T10:36:55;12.30;99.90
13808;DHT22;40769;51.512;5.494;2023-03-01T10:39:23;12.10;99.90
13808;DHT22;40769;51.512;5.494;2023-03-01T10:41:56;12.10;99.90
13808;DHT22;40769;51.512;5.494;2023-03-01T10:44:39;12.10;99.90
13808;DHT22;40769;51.512;5.494;2023-03-01T10:47:16;12.20;99.90
13808;DHT22;40769;51.512;5.494;2023-03-01T10:50:19;12.30;99.90
13808;DHT22;40769;51.512;5.494;2023-03-01T10:53:00;12.30;99.90
13808;DHT22;40769;51.512;5.494;2023-03-01T10:55:38;12.40;99.90
13808;DHT22;40769;51.512;5.494;2023-03-01T10:58:21;12.40;99.90
13808;DHT22;40769;51.512;5.494;2023-03-01T11:00:52;12.30;99.90
13808;DHT22;40769;51.512;5.494;2023-03-01T11:03:26;12.30;99.90
13808;DHT22;40769;51.512;5.494;2023-03-01T11:06:02;12.30;99.90
13808;DHT22;40769;51.512;5.494;2023-03-01T11:08:32;12.30;99.90
13808;DHT22;40769;51.512;5.494;2023-03-01T11:11:33;12.20;99.90
13808;DHT22;40769;51.512;5.494;2023-03-01T11:14:23;12.20;99.90
13808;DHT22;40769;51.512;5.494;2023-03-01T11:16:59;12.30;99.90
13808;DHT22;40769;51.512;5.494;2023-03-01T11:19:26;12.30;99.90
13808;DHT22;40769;51.512;5.494;2023-03-01T11:22:14;12.30;99.90
13808;DHT22;40769;51.512;5.494;2023-03-01T11:24:46;12.40;99.90
13808;DHT22;40769;51.512;5.494;2023-03-01T11:27:17;12.40;99.90
13808;DHT22;40769;51.512;5.494;2023-03-01T11:30:07;12.50;99.90
13808;DHT22;40769;51.512;5.494;2023-03-01T11:32:54;12.40;99.90
13808;DHT22;40769;51.512;5.494;2023-03-01T11:35:26;12.40;99.90
13808;DHT22;40769;51.512;5.494;2023-03-01T11:37:58;12.40;99.90
13808;DHT22;40769;51.512;5.494;2023-03-01T11:40:35;12.40;99.90
13808;DHT22;40769;51.512;5.494;2023-03-01T11:45:56;12.30;99.90
13808;DHT22;40769;51.512;5.494;2023-03-01T11:51:25;12.20;99.90
13808;DHT22;40769;51.512;5.494;2023-03-01T12:16:39;12.00;99.90
13808;DHT22;40769;51.512;5.494;2023-03-01T12:22:29;12.00;99.90
13808;DHT22;40769;51.512;5.494;2023-03-01T12:27:50;11.90;99.90
13808;DHT22;40769;51.512;5.494;2023-03-01T12:47:15;11.90;99.90
13808;DHT22;40769;51.512;5.494;2023-03-01T12:49:49;11.90;99.90
13808;DHT22;40769;51.512;5.494;2023-03-01T12:53:07;11.90;99.90
13808;DHT22;40769;51.512;5.494;2023-03-01T12:55:24;11.90;99.90
13808;DHT22;40769;51.512;5.494;2023-03-01T12:58:00;11.90;99.90
13808;DHT22;40769;51.512;5.494;2023-03-01T13:00:44;11.90;99.90
13808;DHT22;40769;51.512;5.494;2023-03-01T13:08:52;11.80;99.90
13808;DHT22;40769;51.512;5.494;2023-03-01T13:11:21;11.70;99.90
13808;DHT22;40769;51.512;5.494;2023-03-01T13:13:48;11.70;99.90
13808;DHT22;40769;51.512;5.494;2023-03-01T13:18:48;11.60;99.90
13808;DHT22;40769;51.512;5.494;2023-03-01T13:21:29;11.50;99.90
13808;DHT22;40769;51.512;5.494;2023-03-01T13:23:55;11.40;99.90
13808;DHT22;40769;51.512;5.494;2023-03-01T13:26:21;11.60;99.90
13808;DHT22;40769;51.512;5.494;2023-03-01T13:28:54;11.40;99.90
13808;DHT22;40769;51.512;5.494;2023-03-01T13:44:34;11.50;99.90
13808;DHT22;40769;51.512;5.494;2023-03-01T13:49:55;11.80;99.90
13808;DHT22;40769;51.512;5.494;2023-03-01T13:52:40;11.90;99.90
13808;DHT22;40769;51.512;5.494;2023-03-01T13:57:39;12.20;99.90
13808;DHT22;40769;51.512;5.494;2023-03-01T14:00:26;12.50;99.90
13808;DHT22;40769;51.512;5.494;2023-03-01T14:03:08;12.40;99.90
13808;DHT22;40769;51.512;5.494;2023-03-01T14:05:34;12.50;99.90
13808;DHT22;40769;51.512;5.494;2023-03-01T14:08:04;12.60;99.90
13808;DHT22;40769;51.512;5.494;2023-03-01T14:16:22;12.80;99.90
13808;DHT22;40769;51.512;5.494;2023-03-01T14:21:24;13.00;99.90
13808;DHT22;40769;51.512;5.494;2023-03-01T14:23:52;13.10;99.90
13808;DHT22;40769;51.512;5.494;2023-03-01T14:26:22;13.10;99.90
13808;DHT22;40769;51.512;5.494;2023-03-01T14:28:48;13.20;99.90
13808;DHT22;40769;51.512;5.494;2023-03-01T14:31:35;13.20;99.90
13808;DHT22;40769;51.512;5.494;2023-03-01T14:34:01;13.30;99.90
13808;DHT22;40769;51.512;5.494;2023-03-01T14:36:32;13.30;99.90
13808;DHT22;40769;51.512;5.494;2023-03-01T14:38:58;13.30;99.90
13808;DHT22;40769;51.512;5.494;2023-03-01T14:41:32;13.40;99.90
13808;DHT22;40769;51.512;5.494;2023-03-01T14:44:02;13.40;99.90
13808;DHT22;40769;51.512;5.494;2023-03-01T14:46:42;13.50;99.90
13808;DHT22;40769;51.512;5.494;2023-03-01T14:49:22;13.40;99.90
13808;DHT22;40769;51.512;5.494;2023-03-01T14:52:01;13.40;99.90
13808;DHT22;40769;51.512;5.494;2023-03-01T14:54:42;13.40;99.90
13808;DHT22;40769;51.512;5.494;2023-03-01T14:57:24;13.40;99.90
13808;DHT22;40769;51.512;5.494;2023-03-01T14:59:53;13.40;99.90
13808;DHT22;40769;51.512;5.494;2023-03-01T15:02:23;13.50;99.90
13808;DHT22;40769;51.512;5.494;2023-03-01T15:04:54;13.60;99.90
13808;DHT22;40769;51.512;5.494;2023-03-01T15:07:24;13.60;99.90
13808;DHT22;40769;51.512;5.494;2023-03-01T15:09:51;13.70;99.90
13808;DHT22;40769;51.512;5.494;2023-03-01T15:12:36;13.80;99.90
13808;DHT22;40769;51.512;5.494;2023-03-01T15:15:41;13.80;99.90
13808;DHT22;40769;51.512;5.494;2023-03-01T15:18:17;13.90;99.60
13808;DHT22;40769;51.512;5.494;2023-03-01T15:20:44;13.90;99.90
13808;DHT22;40769;51.512;5.494;2023-03-01T15:23:36;13.90;99.90
13808;DHT22;40769;51.512;5.494;2023-03-01T15:26:03;14.00;99.90
13808;DHT22;40769;51.512;5.494;2023-03-01T15:28:34;14.00;99.90
13808;DHT22;40769;51.512;5.494;2023-03-01T15:31:19;14.00;99.90
13808;DHT22;40769;51.512;5.494;2023-03-01T15:33:46;14.00;99.90
13808;DHT22;40769;51.512;5.494;2023-03-01T15:36:45;14.00;99.90
13808;DHT22;40769;51.512;5.494;2023-03-01T15:41:55;13.90;99.90
13808;DHT22;40769;51.512;5.494;2023-03-01T15:44:30;13.90;99.90
13808;DHT22;40769;51.512;5.494;2023-03-01T15:46:56;13.80;99.90
13808;DHT22;40769;51.512;5.494;2023-03-01T15:51:57;13.80;99.90
13808;DHT22;40769;51.512;5.494;2023-03-01T15:54:25;13.70;99.90
13808;DHT22;40769;51.512;5.494;2023-03-01T15:56:51;13.60;99.90
13808;DHT22;40769;51.512;5.494;2023-03-01T15:59:18;13.50;99.90
13808;DHT22;40769;51.512;5.494;2023-03-01T16:01:44;13.40;99.90
13808;DHT22;40769;51.512;5.494;2023-03-01T16:04:14;13.40;99.90
13808;DHT22;40769;51.512;5.494;2023-03-01T16:06:55;13.30;99.60
13808;DHT22;40769;51.512;5.494;2023-03-01T16:09:24;13.20;98.70
13808;DHT22;40769;51.512;5.494;2023-03-01T16:11:51;13.10;99.00
13808;DHT22;40769;51.512;5.494;2023-03-01T16:14:17;13.00;99.50
13808;DHT22;40769;51.512;5.494;2023-03-01T16:16:44;12.90;99.40
13808;DHT22;40769;51.512;5.494;2023-03-01T16:19:09;12.90;99.10
13808;DHT22;40769;51.512;5.494;2023-03-01T16:21:36;12.70;99.00
13808;DHT22;40769;51.512;5.494;2023-03-01T16:24:02;12.60;98.80
13808;DHT22;40769;51.512;5.494;2023-03-01T16:26:28;12.50;98.60
13808;DHT22;40769;51.512;5.494;2023-03-01T16:28:57;12.50;98.20
13808;DHT22;40769;51.512;5.494;2023-03-01T16:31:23;12.10;97.80
13808;DHT22;40769;51.512;5.494;2023-03-01T16:33:53;11.90;98.30
13808;DHT22;40769;51.512;5.494;2023-03-01T16:36:20;11.60;98.70
13808;DHT22;40769;51.512;5.494;2023-03-01T16:38:49;11.40;98.60
13808;DHT22;40769;51.512;5.494;2023-03-01T16:41:16;11.30;98.60
13808;DHT22;40769;51.512;5.494;2023-03-01T16:43:43;11.00;98.50
13808;DHT22;40769;51.512;5.494;2023-03-01T16:46:24;10.80;98.40
13808;DHT22;40769;51.512;5.494;2023-03-01T16:48:51;10.70;98.30
13808;DHT22;40769;51.512;5.494;2023-03-01T16:51:17;10.40;98.40
13808;DHT22;40769;51.512;5.494;2023-03-01T16:53:43;10.30;98.50
13808;DHT22;40769;51.512;5.494;2023-03-01T16:56:11;10.10;98.80
13808;DHT22;40769;51.512;5.494;2023-03-01T16:58:38;9.80;98.80
13808;DHT22;40769;51.512;5.494;2023-03-01T17:01:13;9.70;98.80
13808;DHT22;40769;51.512;5.494;2023-03-01T17:03:39;9.40;98.60
13808;DHT22;40769;51.512;5.494;2023-03-01T17:06:08;9.30;98.70
13808;DHT22;40769;51.512;5.494;2023-03-01T17:08:34;9.00;99.40
13808;DHT22;40769;51.512;5.494;2023-03-01T17:11:09;8.80;99.60
13808;DHT22;40769;51.512;5.494;2023-03-01T17:13:36;8.70;99.90
13808;DHT22;40769;51.512;5.494;2023-03-01T17:16:06;8.60;99.90
13808;DHT22;40769;51.512;5.494;2023-03-01T17:18:32;8.50;99.90
13808;DHT22;40769;51.512;5.494;2023-03-01T17:20:58;8.40;99.90
13808;DHT22;40769;51.512;5.494;2023-03-01T17:23:25;8.30;99.90
13808;DHT22;40769;51.512;5.494;2023-03-01T17:25:52;8.20;99.90
13808;DHT22;40769;51.512;5.494;2023-03-01T17:28:24;8.00;99.90
13808;DHT22;40769;51.512;5.494;2023-03-01T17:30:50;7.80;99.90
13808;DHT22;40769;51.512;5.494;2023-03-01T17:33:16;7.60;99.90
13808;DHT22;40769;51.512;5.494;2023-03-01T17:35:42;7.50;99.90
13808;DHT22;40769;51.512;5.494;2023-03-01T17:38:10;7.40;99.90
13808;DHT22;40769;51.512;5.494;2023-03-01T17:40:36;7.30;99.90
13808;DHT22;40769;51.512;5.494;2023-03-01T17:43:02;7.30;99.90
13808;DHT22;40769;51.512;5.494;2023-03-01T17:45:28;7.30;99.90
13808;DHT22;40769;51.512;5.494;2023-03-01T17:47:54;7.20;99.90